Time;durP1;ratioP1;P1;durP2;ratioP2;P2;SDS_P1;SDS_P2;PMS_P1;PMS_P2;Temp;Humidity;BMP_temperature;BMP_pressure;BME280_temperature;BME280_humidity;BME280_pressure;Samples;Min_cycle;Max_cycle;Signal;HPM_P1;HPM_P2
2022/03/07 00:01:34;;;;;;;1.00;0.60;;;;;;;1.67;49.34;100025.78;4325363;33;34591;-66
2022/03/07 00:04:02;;;;;;;0.57;0.50;;;;;;;1.48;49.91;100030.66;4325666;33;33605;-67
2022/03/07 00:06:29;;;;;;;21.92;12.75;;;;;;;1.71;49.95;100041.28;4322696;33;33332;-66
2022/03/07 00:08:58;;;;;;;1.62;1.00;;;;;;;1.73;49.40;100041.94;4324936;33;35227;-66
2022/03/07 00:11:28;;;;;;;19.70;11.60;;;;;;;1.22;51.05;100039.09;4325525;33;34513;-67
2022/03/07 00:13:55;;;;;;;23.38;11.68;;;;;;;1.56;49.40;100043.13;4325131;33;33666;-71
2022/03/07 00:16:23;;;;;;;2.65;2.45;;;;;;;1.16;50.77;100042.47;4326404;33;34775;-67
2022/03/07 00:18:51;;;;;;;19.17;11.10;;;;;;;1.25;50.89;100038.72;4332854;33;35034;-72
2022/03/07 00:21:19;;;;;;;20.85;11.80;;;;;;;1.27;51.16;100041.22;4332927;33;33760;-66
2022/03/07 00:23:47;;;;;;;23.45;12.30;;;;;;;1.38;50.25;100038.94;4333914;33;34256;-72
2022/03/07 00:26:17;;;;;;;18.20;11.25;;;;;;;1.41;50.96;100040.41;4333713;33;34095;-71
2022/03/07 00:28:45;;;;;;;21.80;11.80;;;;;;;1.39;50.65;100045.13;4333725;33;35058;-66
2022/03/07 00:31:14;;;;;;;0.90;0.77;;;;;;;1.68;49.76;100041.63;4333819;33;34079;-67
2022/03/07 00:33:42;;;;;;;20.25;11.52;;;;;;;2.13;48.83;100052.31;4333640;33;33923;-68
2022/03/07 00:36:09;;;;;;;22.80;12.00;;;;;;;2.02;48.74;100045.59;4333949;33;33826;-72
2022/03/07 00:38:37;;;;;;;21.10;11.90;;;;;;;1.67;49.68;100053.34;4333653;33;33883;-67
2022/03/07 00:41:08;;;;;;;22.05;11.80;;;;;;;1.88;49.51;100043.75;4333619;33;33867;-67
2022/03/07 00:43:37;;;;;;;0.98;0.88;;;;;;;1.77;50.00;100043.22;4333384;33;34432;-72
2022/03/07 00:46:04;;;;;;;1.05;1.02;;;;;;;1.81;50.04;100041.00;4333775;33;34747;-71
2022/03/07 00:48:32;;;;;;;20.37;11.80;;;;;;;1.78;49.77;100050.22;4333626;33;34818;-67
2022/03/07 00:51:00;;;;;;;20.73;11.90;;;;;;;1.66;50.13;100042.84;4333623;33;33760;-71
2022/03/07 00:53:28;;;;;;;23.58;12.93;;;;;;;2.00;48.85;100040.44;4333618;33;33624;-76
2022/03/07 00:55:56;;;;;;;2.22;2.05;;;;;;;1.64;49.44;100043.00;4333941;33;34785;-71
2022/03/07 00:58:30;;;;;;;21.15;11.65;;;;;;;1.53;50.58;100030.91;4333497;33;34167;-67
2022/03/07 01:00:58;;;;;;;25.05;12.52;;;;;;;1.44;50.93;100042.72;4333294;33;34683;-71
2022/03/07 01:03:25;;;;;;;20.88;11.82;;;;;;;0.98;52.04;100035.59;4333411;33;33540;-70
2022/03/07 01:05:53;;;;;;;23.73;12.57;;;;;;;1.50;50.12;100036.63;4333826;33;33822;-65
2022/03/07 01:08:22;;;;;;;21.05;11.30;;;;;;;1.63;50.02;100036.84;4333434;33;34177;-64
2022/03/07 01:10:50;;;;;;;24.55;12.70;;;;;;;1.28;50.52;100033.03;4333552;33;33410;-67
2022/03/07 01:13:18;;;;;;;0.85;0.60;;;;;;;1.12;51.07;100030.47;4333284;33;33411;-72
2022/03/07 01:15:46;;;;;;;20.48;11.75;;;;;;;1.81;49.50;100031.13;4333470;33;34782;-71
2022/03/07 01:18:14;;;;;;;22.80;11.60;;;;;;;1.30;50.94;100038.19;4333380;33;35106;-67
2022/03/07 01:20:41;;;;;;;19.62;11.90;;;;;;;1.62;49.84;100040.53;4333426;33;34785;-72
2022/03/07 01:23:09;;;;;;;20.27;11.50;;;;;;;1.47;50.36;100031.66;4333315;33;33046;-71
2022/03/07 01:25:36;;;;;;;15.20;9.27;;;;;;;1.39;50.41;100024.53;4333366;33;34797;-71
2022/03/07 01:28:04;;;;;;;4.45;3.10;;;;;;;1.39;50.90;100032.56;4333140;33;33971;-67
2022/03/07 01:30:31;;;;;;;21.62;11.82;;;;;;;1.49;50.52;100026.13;4333112;33;33862;-70
2022/03/07 01:32:59;;;;;;;6.55;4.30;;;;;;;1.06;51.86;100034.72;4332614;33;34496;-71
2022/03/07 01:35:26;;;;;;;20.10;12.13;;;;;;;1.05;51.74;100025.03;4333368;33;34601;-71
2022/03/07 01:37:54;;;;;;;19.85;11.45;;;;;;;1.20;51.48;100022.41;4332986;33;35081;-66
2022/03/07 01:40:24;;;;;;;22.25;12.23;;;;;;;1.64;50.21;100025.12;4333128;33;33744;-71
2022/03/07 01:42:52;;;;;;;20.60;12.00;;;;;;;1.16;51.58;100013.91;4333288;33;33394;-72
2022/03/07 01:45:20;;;;;;;20.23;11.77;;;;;;;1.31;50.97;100013.09;4332873;33;33766;-66
2022/03/07 01:47:48;;;;;;;23.42;11.35;;;;;;;1.48;50.09;100021.78;4333234;33;34624;-67
2022/03/07 01:50:17;;;;;;;24.20;12.15;;;;;;;1.36;50.32;100018.72;4333126;33;34247;-68
2022/03/07 01:52:47;;;;;;;0.80;0.80;;;;;;;1.28;50.95;100019.66;4333364;33;33807;-71
2022/03/07 01:55:15;;;;;;;21.17;12.30;;;;;;;1.60;49.89;100020.34;4333076;33;34016;-72
2022/03/07 01:57:45;;;;;;;21.35;12.70;;;;;;;1.18;51.47;100019.91;4332959;33;34026;-71
2022/03/07 02:00:16;;;;;;;21.75;11.77;;;;;;;1.33;50.68;100014.56;4319992;33;33800;-71
2022/03/07 02:02:44;;;;;;;24.23;13.35;;;;;;;1.50;50.69;100019.78;4333026;33;34241;-67
2022/03/07 02:05:12;;;;;;;14.87;7.53;;;;;;;1.51;49.99;100026.78;4332763;33;33994;-72
2022/03/07 02:07:40;;;;;;;20.55;11.98;;;;;;;1.48;50.54;100021.78;4319725;33;34648;-72
2022/03/07 02:10:10;;;;;;;0.75;0.55;;;;;;;1.23;50.77;100020.19;4332812;33;34021;-66
2022/03/07 02:12:40;;;;;;;21.12;12.13;;;;;;;1.79;49.41;100019.78;4332851;33;33135;-72
2022/03/07 02:15:08;;;;;;;20.27;11.80;;;;;;;1.78;49.46;100017.28;4332508;33;34870;-73
2022/03/07 02:17:37;;;;;;;22.67;12.23;;;;;;;1.48;50.36;100011.09;4333218;33;34972;-72
2022/03/07 02:20:05;;;;;;;17.77;10.73;;;;;;;1.23;50.56;100022.03;4332459;33;33739;-67
2022/03/07 02:22:36;;;;;;;20.25;11.60;;;;;;;0.95;51.33;100017.28;4332686;33;34555;-72
2022/03/07 02:25:05;;;;;;;20.25;11.10;;;;;;;1.29;50.87;100010.59;4332421;33;33606;-70
2022/03/07 02:27:33;;;;;;;19.20;11.35;;;;;;;1.42;49.76;100012.66;4332494;33;34422;-72
2022/03/07 02:30:05;;;;;;;23.50;12.05;;;;;;;1.60;49.52;100017.66;4332840;33;34095;-72
2022/03/07 02:32:33;;;;;;;20.42;11.55;;;;;;;1.47;50.31;100012.09;4332635;33;34318;-72
2022/03/07 02:35:02;;;;;;;2.03;1.85;;;;;;;1.63;49.62;100015.44;4332546;33;34187;-72
2022/03/07 02:37:30;;;;;;;21.83;11.88;;;;;;;2.05;48.58;100008.59;4319416;33;34091;-72
2022/03/07 02:39:57;;;;;;;0.75;0.73;;;;;;;1.84;49.11;100012.03;4332242;33;33965;-69
2022/03/07 02:42:37;;;;;;;0.80;0.80;;;;;;;1.49;49.93;100005.59;4332482;33;33648;-72
2022/03/07 02:45:06;;;;;;;22.45;12.23;;;;;;;2.04;48.44;100022.16;4333422;33;34007;-67
2022/03/07 02:47:33;;;;;;;1.77;1.67;;;;;;;1.89;49.13;100022.16;4334442;33;34916;-69
2022/03/07 02:50:01;;;;;;;22.37;12.35;;;;;;;1.59;50.06;100016.00;4334734;33;33953;-71
2022/03/07 02:52:28;;;;;;;22.08;12.43;;;;;;;1.71;49.53;100019.87;4334241;33;33545;-71
2022/03/07 02:54:56;;;;;;;22.83;12.37;;;;;;;1.87;49.10;100026.06;4334636;33;33742;-67
2022/03/07 02:57:24;;;;;;;22.67;13.13;;;;;;;1.58;49.52;100030.41;4334421;33;35026;-70
2022/03/07 02:59:54;;;;;;;0.62;0.62;;;;;;;1.05;50.90;100029.53;4334079;33;34794;-68
2022/03/07 03:02:21;;;;;;;20.85;12.50;;;;;;;1.47;49.89;100031.66;4334685;33;33429;-72
2022/03/07 03:04:49;;;;;;;28.17;13.62;;;;;;;1.00;50.89;100022.91;4334396;33;34003;-71
2022/03/07 03:07:17;;;;;;;21.45;12.20;;;;;;;0.92;51.69;100032.81;4334329;33;33442;-71
2022/03/07 03:09:45;;;;;;;22.10;12.65;;;;;;;1.26;50.94;100027.03;4334535;33;34090;-66
2022/03/07 03:12:12;;;;;;;27.00;14.07;;;;;;;0.93;51.81;100027.31;4334265;33;33208;-72
2022/03/07 03:14:40;;;;;;;23.38;11.65;;;;;;;0.99;51.37;100026.59;4334078;33;33860;-71
2022/03/07 03:17:07;;;;;;;23.20;12.40;;;;;;;1.10;51.79;100035.16;4334084;33;34624;-68
2022/03/07 03:19:35;;;;;;;11.68;6.65;;;;;;;0.16;54.25;100035.31;4334185;33;34833;-71
2022/03/07 03:22:03;;;;;;;22.83;12.60;;;;;;;0.91;52.04;100041.84;4334378;33;34211;-71
2022/03/07 03:24:30;;;;;;;0.90;0.90;;;;;;;0.93;51.89;100045.16;4334390;33;34102;-72
2022/03/07 03:26:58;;;;;;;20.98;12.43;;;;;;;1.12;51.49;100042.00;4334124;33;34150;-72
2022/03/07 03:29:25;;;;;;;24.95;13.30;;;;;;;0.87;52.19;100041.38;4333918;33;34299;-72
2022/03/07 03:31:55;;;;;;;1.65;1.15;;;;;;;0.60;53.27;100051.59;4334162;33;34602;-70
2022/03/07 03:34:24;;;;;;;1.20;1.20;;;;;;;0.88;52.73;100040.34;4334279;33;33883;-72
2022/03/07 03:36:51;;;;;;;28.23;14.75;;;;;;;1.03;52.19;100048.41;4320760;33;35049;-72
2022/03/07 03:39:18;;;;;;;24.10;12.82;;;;;;;0.55;53.50;100045.91;4334205;33;33092;-72
2022/03/07 03:41:46;;;;;;;1.05;0.95;;;;;;;0.55;52.96;100043.25;4334006;33;33620;-66
2022/03/07 03:44:13;;;;;;;25.85;13.27;;;;;;;0.40;53.70;100048.50;4333900;33;34665;-72
2022/03/07 03:46:41;;;;;;;24.33;13.88;;;;;;;1.17;52.11;100050.31;4333679;33;35098;-66
2022/03/07 03:49:09;;;;;;;1.33;0.88;;;;;;;1.48;50.85;100052.03;4333156;33;33946;-67
2022/03/07 03:51:36;;;;;;;25.27;13.45;;;;;;;1.51;51.12;100054.34;4333844;33;33181;-68
2022/03/07 03:54:03;;;;;;;21.05;12.23;;;;;;;1.44;51.34;100053.41;4334233;33;34620;-67
2022/03/07 03:56:31;;;;;;;14.00;9.15;;;;;;;1.26;51.43;100055.59;4333651;33;34209;-68
2022/03/07 03:58:59;;;;;;;22.90;12.57;;;;;;;1.42;50.50;100055.44;4333832;33;33690;-72
2022/03/07 04:01:26;;;;;;;25.55;14.25;;;;;;;1.19;51.15;100058.16;4331193;33;33502;-71
2022/03/07 04:03:54;;;;;;;23.77;13.43;;;;;;;1.09;51.62;100061.06;4333113;33;34869;-71
2022/03/07 04:06:21;;;;;;;23.58;13.25;;;;;;;1.32;50.88;100055.69;4333838;33;33144;-72
2022/03/07 04:08:50;;;;;;;1.85;0.98;;;;;;;1.19;51.57;100058.16;4334000;33;33846;-65
2022/03/07 04:11:17;;;;;;;1.77;1.60;;;;;;;1.46;50.83;100050.56;4333627;33;33473;-72
2022/03/07 04:13:45;;;;;;;1.48;1.25;;;;;;;1.19;51.44;100052.81;4333859;33;33582;-66
2022/03/07 04:16:12;;;;;;;24.20;14.02;;;;;;;1.51;50.51;100046.34;4333705;33;34332;-66
2022/03/07 04:18:40;;;;;;;22.65;13.65;;;;;;;1.59;50.70;100050.75;4333876;33;34049;-72
2022/03/07 04:21:07;;;;;;;24.60;14.38;;;;;;;1.61;50.00;100052.22;4333853;33;33486;-66
2022/03/07 04:23:35;;;;;;;24.52;13.25;;;;;;;1.56;49.92;100054.63;4333704;33;34676;-72
2022/03/07 04:26:03;;;;;;;1.08;1.02;;;;;;;1.54;50.45;100058.50;4333774;33;35002;-68
2022/03/07 04:28:32;;;;;;;22.23;12.13;;;;;;;1.53;50.21;100051.47;4333921;33;33962;-73
2022/03/07 04:31:00;;;;;;;22.37;13.48;;;;;;;1.25;50.75;100056.59;4334006;33;33600;-72
2022/03/07 04:33:27;;;;;;;3.25;2.05;;;;;;;1.39;49.98;100055.81;4333557;33;34009;-67
2022/03/07 04:35:55;;;;;;;1.00;0.82;;;;;;;1.19;50.37;100050.97;4333720;33;34299;-66
2022/03/07 04:38:25;;;;;;;28.70;14.30;;;;;;;0.88;51.56;100064.37;4333954;33;34611;-70
2022/03/07 04:40:53;;;;;;;0.70;0.70;;;;;;;1.25;50.59;100052.06;4333476;33;33531;-76
2022/03/07 04:43:21;;;;;;;24.52;14.68;;;;;;;1.39;50.93;100059.31;4333603;33;33726;-74
2022/03/07 04:45:50;;;;;;;11.90;7.10;;;;;;;1.43;50.02;100057.94;4333947;33;34239;-72
2022/03/07 04:48:18;;;;;;;24.45;14.07;;;;;;;0.91;51.46;100058.72;4333397;33;34082;-72
2022/03/07 04:50:46;;;;;;;16.45;7.40;;;;;;;1.38;50.65;100054.13;4334003;33;33608;-73
2022/03/07 04:53:14;;;;;;;10.32;6.12;;;;;;;1.37;50.73;100055.97;4333738;33;34667;-73
2022/03/07 04:55:42;;;;;;;24.15;13.30;;;;;;;1.33;50.88;100059.19;4333474;33;34189;-67
2022/03/07 04:58:09;;;;;;;26.25;13.95;;;;;;;1.50;51.08;100065.22;4333544;33;34590;-67
2022/03/07 05:00:37;;;;;;;23.65;13.15;;;;;;;1.31;50.98;100053.19;4333517;33;34421;-70
2022/03/07 05:03:04;;;;;;;25.23;12.90;;;;;;;1.12;51.54;100058.03;4333392;33;34554;-72
2022/03/07 05:05:32;;;;;;;24.45;13.62;;;;;;;1.27;51.45;100062.59;4333664;33;34484;-72
2022/03/07 05:07:59;;;;;;;26.52;13.77;;;;;;;1.75;50.66;100055.09;4332448;33;34138;-72
2022/03/07 05:10:27;;;;;;;26.62;13.93;;;;;;;1.88;49.54;100057.97;4333558;33;33923;-72
2022/03/07 05:12:56;;;;;;;25.08;14.30;;;;;;;1.33;50.78;100054.69;4333437;33;33948;-68
2022/03/07 05:15:24;;;;;;;26.00;13.98;;;;;;;1.97;49.23;100058.72;4333559;33;34355;-72
2022/03/07 05:17:54;;;;;;;25.30;14.55;;;;;;;1.56;49.32;100056.47;4333061;33;33836;-72
2022/03/07 05:20:22;;;;;;;5.70;3.20;;;;;;;0.93;51.21;100056.69;4333476;33;33702;-70
2022/03/07 05:23:10;;;;;;;23.92;14.02;;;;;;;1.33;50.53;100060.03;4333298;33;33787;-72
2022/03/07 05:25:38;;;;;;;1.00;0.85;;;;;;;0.98;51.37;100058.81;4333395;33;34078;-67
2022/03/07 05:28:05;;;;;;;22.40;12.63;;;;;;;1.26;50.68;100059.09;4333364;33;33891;-72
2022/03/07 05:30:33;;;;;;;25.33;14.48;;;;;;;1.39;50.51;100061.97;4333240;33;33396;-72
2022/03/07 05:33:00;;;;;;;10.15;5.15;;;;;;;1.32;50.86;100055.69;4333518;33;34132;-72
2022/03/07 05:35:29;;;;;;;1.33;1.23;;;;;;;1.18;51.33;100061.84;4333335;33;35059;-67
2022/03/07 05:37:57;;;;;;;2.00;1.35;;;;;;;1.16;51.64;100062.00;4333301;33;33720;-72
2022/03/07 05:40:24;;;;;;;1.08;0.93;;;;;;;1.60;49.89;100065.81;4333296;33;33323;-72
2022/03/07 05:42:52;;;;;;;21.52;13.05;;;;;;;1.47;51.31;100065.56;4333237;33;33992;-73
2022/03/07 05:45:20;;;;;;;26.65;13.88;;;;;;;1.44;51.20;100059.56;4333080;33;33915;-66
2022/03/07 05:47:47;;;;;;;24.02;13.50;;;;;;;1.69;50.72;100072.72;4333033;33;33746;-67
2022/03/07 05:50:14;;;;;;;0.80;0.50;;;;;;;1.38;51.16;100065.69;4333277;33;34539;-67
2022/03/07 05:52:42;;;;;;;29.33;14.80;;;;;;;1.33;51.54;100067.22;4328846;33;33869;-67
2022/03/07 05:55:10;;;;;;;14.55;7.57;;;;;;;1.35;51.21;100067.87;4328558;33;35122;-68
2022/03/07 05:57:38;;;;;;;14.18;7.53;;;;;;;1.78;50.42;100066.28;4325521;33;34415;-67
2022/03/07 06:00:08;;;;;;;2.40;1.85;;;;;;;1.62;51.10;100067.28;4320960;33;34392;-71
2022/03/07 06:02:36;;;;;;;24.95;13.95;;;;;;;1.44;50.83;100075.63;4317157;33;34003;-69
2022/03/07 06:05:04;;;;;;;26.08;14.73;;;;;;;1.47;51.16;100071.78;4312360;33;35070;-69
2022/03/07 06:07:32;;;;;;;22.35;13.40;;;;;;;1.50;51.31;100063.38;4331196;33;34712;-66
2022/03/07 06:09:59;;;;;;;27.40;14.43;;;;;;;1.58;50.78;100068.66;4329759;33;32887;-67
2022/03/07 06:12:27;;;;;;;29.90;15.60;;;;;;;1.88;50.66;100074.03;4330886;33;33771;-68
2022/03/07 06:14:54;;;;;;;26.17;13.90;;;;;;;1.35;51.89;100076.72;4331039;33;34999;-64
2022/03/07 06:17:22;;;;;;;2.83;1.48;;;;;;;0.93;52.56;100074.53;4329830;33;33880;-66
2022/03/07 06:19:50;;;;;;;27.62;14.85;;;;;;;1.82;50.72;100078.25;4331714;33;33178;-68
2022/03/07 06:22:17;;;;;;;26.33;14.65;;;;;;;1.87;49.84;100079.56;4333087;33;33909;-69
2022/03/07 06:24:45;;;;;;;2.35;2.15;;;;;;;1.33;51.53;100080.59;4320978;33;34091;-66
2022/03/07 06:27:12;;;;;;;28.65;15.30;;;;;;;1.67;51.05;100088.13;4318885;33;33668;-70
2022/03/07 06:29:39;;;;;;;29.02;15.93;;;;;;;1.21;52.41;100083.69;4315417;33;33170;-70
2022/03/07 06:32:07;;;;;;;7.03;3.40;;;;;;;1.11;52.00;100090.28;4317770;33;33823;-71
2022/03/07 06:34:35;;;;;;;25.55;14.60;;;;;;;1.45;51.33;100092.53;4316246;33;34036;-70
2022/03/07 06:37:03;;;;;;;26.98;15.68;;;;;;;1.10;52.88;100097.50;4318407;33;33836;-72
2022/03/07 06:39:30;;;;;;;27.42;14.98;;;;;;;1.81;51.20;100089.13;4318510;33;34419;-71
2022/03/07 06:41:58;;;;;;;1.17;1.10;;;;;;;1.49;51.89;100095.63;4318452;33;33422;-72
2022/03/07 06:44:25;;;;;;;3.50;2.67;;;;;;;1.96;50.54;100092.66;4318176;33;34008;-70
2022/03/07 06:46:54;;;;;;;30.05;15.48;;;;;;;1.93;50.48;100094.87;4318514;33;34767;-71
2022/03/07 06:49:21;;;;;;;26.27;14.40;;;;;;;1.91;50.83;100091.56;4318250;33;34518;-71
2022/03/07 06:51:49;;;;;;;1.02;0.68;;;;;;;2.11;50.12;100097.19;4305383;33;33581;-71
2022/03/07 06:54:16;;;;;;;1.83;1.70;;;;;;;1.93;50.16;100095.72;4318031;33;34162;-71
2022/03/07 06:56:44;;;;;;;29.08;15.90;;;;;;;1.57;51.47;100100.91;4319719;33;33929;-71
2022/03/07 06:59:11;;;;;;;27.37;15.73;;;;;;;1.63;51.17;100103.69;4319721;33;33333;-71
2022/03/07 07:01:39;;;;;;;25.20;14.70;;;;;;;1.46;50.83;100101.34;4319844;33;34091;-71
2022/03/07 07:04:07;;;;;;;30.80;16.52;;;;;;;2.22;49.99;100097.53;4319367;33;34219;-71
2022/03/07 07:06:34;;;;;;;28.10;15.68;;;;;;;1.57;50.61;100099.06;4319722;33;34016;-71
2022/03/07 07:09:02;;;;;;;29.17;15.27;;;;;;;1.47;51.12;100106.53;4319595;33;33636;-71
2022/03/07 07:11:29;;;;;;;25.83;15.30;;;;;;;1.20;52.21;100102.56;4319169;33;33891;-71
2022/03/07 07:13:56;;;;;;;27.67;15.10;;;;;;;1.50;52.37;100100.81;4319793;33;34186;-72
2022/03/07 07:16:24;;;;;;;30.85;15.20;;;;;;;1.99;51.07;100102.19;4319594;33;34076;-71
2022/03/07 07:18:51;;;;;;;26.87;14.77;;;;;;;1.63;50.88;100095.66;4319396;33;33523;-72
2022/03/07 07:21:19;;;;;;;27.98;14.77;;;;;;;2.05;50.91;100106.78;4319553;33;33729;-71
2022/03/07 07:23:46;;;;;;;24.65;14.45;;;;;;;1.87;50.61;100095.63;4306529;33;34238;-71
2022/03/07 07:26:14;;;;;;;26.35;14.85;;;;;;;1.75;50.66;100106.78;4319333;33;33796;-71
2022/03/07 07:28:42;;;;;;;9.43;6.18;;;;;;;2.10;49.63;100109.75;4319612;33;34490;-71
2022/03/07 07:31:09;;;;;;;28.65;14.35;;;;;;;2.33;49.76;100111.47;4305623;33;33948;-71
2022/03/07 07:33:43;;;;;;;29.75;15.75;;;;;;;2.11;49.43;100114.06;4319407;33;34993;-72
2022/03/07 07:36:10;;;;;;;15.75;9.18;;;;;;;2.27;49.27;100121.09;4319351;33;35111;-71
2022/03/07 07:38:38;;;;;;;28.67;15.27;;;;;;;1.85;51.46;100119.88;4306314;33;33764;-72
2022/03/07 07:41:05;;;;;;;28.02;14.55;;;;;;;2.17;50.49;100131.25;4319332;33;33125;-71
2022/03/07 07:43:33;;;;;;;29.35;15.43;;;;;;;2.49;50.30;100140.75;4319323;33;34239;-71
2022/03/07 07:46:01;;;;;;;28.48;15.68;;;;;;;2.61;49.87;100138.41;4319358;33;33714;-72
2022/03/07 07:48:29;;;;;;;29.70;15.50;;;;;;;2.60;49.24;100131.41;4322328;33;33364;-71
2022/03/07 07:50:56;;;;;;;1.70;1.60;;;;;;;2.27;50.09;100134.47;4318476;33;34100;-72
2022/03/07 07:53:24;;;;;;;25.75;14.82;;;;;;;2.64;49.51;100136.19;4318454;33;34225;-72
2022/03/07 07:55:51;;;;;;;24.27;14.20;;;;;;;2.67;48.57;100134.97;4317932;33;34749;-71
2022/03/07 07:58:18;;;;;;;25.52;14.23;;;;;;;2.94;48.67;100129.91;4317954;33;34276;-71
2022/03/07 08:00:46;;;;;;;24.98;14.43;;;;;;;3.05;47.73;100143.66;4317663;33;34109;-72
2022/03/07 08:03:14;;;;;;;27.50;16.02;;;;;;;2.30;49.55;100147.50;4317807;33;33761;-72
2022/03/07 08:05:45;;;;;;;23.23;13.02;;;;;;;2.45;50.27;100151.00;4317834;33;34040;-73
2022/03/07 08:08:12;;;;;;;25.98;13.60;;;;;;;2.82;48.78;100159.88;4316208;33;34362;-71
2022/03/07 08:10:40;;;;;;;26.98;14.73;;;;;;;2.79;48.23;100162.13;4317995;33;33850;-70
2022/03/07 08:13:08;;;;;;;26.92;14.80;;;;;;;3.22;47.00;100165.72;4317710;33;34266;-72
2022/03/07 08:15:35;;;;;;;27.27;14.73;;;;;;;2.66;48.82;100168.16;4317820;33;33839;-67
2022/03/07 08:18:03;;;;;;;26.30;14.70;;;;;;;3.49;46.47;100166.78;4318036;33;33577;-72
2022/03/07 08:20:30;;;;;;;27.50;14.85;;;;;;;3.51;46.05;100165.78;4317361;33;34107;-70
2022/03/07 08:22:58;;;;;;;26.33;14.32;;;;;;;3.23;47.14;100169.22;4317764;33;34230;-70
2022/03/07 08:25:26;;;;;;;27.00;14.65;;;;;;;2.45;49.23;100168.91;4317955;33;34247;-71
2022/03/07 08:27:53;;;;;;;27.48;14.80;;;;;;;2.72;48.87;100170.09;4317943;33;33651;-66
2022/03/07 08:30:23;;;;;;;27.48;15.57;;;;;;;2.53;48.72;100170.66;4317788;33;34851;-71
2022/03/07 08:32:51;;;;;;;28.17;15.27;;;;;;;2.99;48.15;100163.19;4304862;33;34282;-70
2022/03/07 08:35:19;;;;;;;26.23;13.98;;;;;;;2.62;48.43;100161.50;4317510;33;33633;-71
2022/03/07 08:37:48;;;;;;;20.65;13.35;;;;;;;2.02;49.55;100148.13;4312896;33;169798;-69
2022/03/07 08:40:17;;;;;;;26.37;14.02;;;;;;;2.55;49.94;100145.34;4317858;33;33840;-69
2022/03/07 08:42:45;;;;;;;25.70;14.32;;;;;;;2.51;48.78;100141.38;4317486;33;34045;-67
2022/03/07 08:45:20;;;;;;;25.30;13.70;;;;;;;2.82;47.52;100126.91;4317762;33;33836;-70
2022/03/07 08:47:53;;;;;;;24.90;14.43;;;;;;;3.61;48.02;100129.53;4318038;33;33670;-69
2022/03/07 08:50:21;;;;;;;25.70;14.27;;;;;;;3.85;45.78;100127.47;4317039;33;33559;-66
2022/03/07 08:52:48;;;;;;;26.45;14.05;;;;;;;3.95;45.56;100132.47;4317613;33;34334;-66
2022/03/07 08:55:16;;;;;;;0.75;0.75;;;;;;;4.66;44.66;100132.22;4317704;33;34651;-66
2022/03/07 08:57:43;;;;;;;24.33;13.27;;;;;;;4.93;43.43;100130.47;4317269;33;33535;-70
2022/03/07 09:00:12;;;;;;;22.27;12.73;;;;;;;4.57;42.98;100136.94;4316417;33;34714;-65
2022/03/07 09:02:47;;;;;;;25.10;13.80;;;;;;;4.55;43.91;100144.38;4322101;33;33892;-65
2022/03/07 09:05:15;;;;;;;24.92;13.07;;;;;;;4.21;44.61;100143.41;4324927;33;33754;-66
2022/03/07 09:07:43;;;;;;;22.02;13.57;;;;;;;4.84;43.15;100145.16;4318880;33;34083;-68
2022/03/07 09:10:11;;;;;;;21.77;13.00;;;;;;;3.92;45.57;100146.28;4305445;33;33967;-67
2022/03/07 09:12:38;;;;;;;22.87;14.10;;;;;;;3.81;45.80;100140.44;4329343;33;34203;-68
2022/03/07 09:15:06;;;;;;;23.98;13.43;;;;;;;4.41;44.19;100138.13;4332100;33;34888;-68
2022/03/07 09:17:33;;;;;;;20.60;12.77;;;;;;;4.39;43.99;100128.63;4333627;33;33729;-69
2022/03/07 09:20:01;;;;;;;20.42;12.68;;;;;;;3.81;44.08;100129.69;4333350;33;33796;-67
2022/03/07 09:22:31;;;;;;;24.20;13.70;;;;;;;4.09;45.42;100134.22;4333331;33;33850;-68
2022/03/07 09:24:58;;;;;;;23.55;13.55;;;;;;;3.33;46.81;100137.56;4316640;33;33795;-68
2022/03/07 09:27:26;;;;;;;24.37;14.10;;;;;;;4.04;45.69;100128.59;4326222;33;33619;-69
2022/03/07 09:29:53;;;;;;;21.27;12.75;;;;;;;4.57;44.08;100123.53;4322232;33;35000;-69
2022/03/07 09:32:21;;;;;;;26.48;14.30;;;;;;;4.76;44.44;100131.87;4328391;33;34339;-69
2022/03/07 09:34:49;;;;;;;23.70;13.43;;;;;;;3.62;44.94;100130.38;4324338;33;33793;-70
2022/03/07 09:37:16;;;;;;;24.23;13.00;;;;;;;4.01;45.07;100131.69;4318481;33;33341;-69
2022/03/07 09:39:44;;;;;;;23.85;13.85;;;;;;;3.97;45.63;100131.25;4318390;33;34094;-72
2022/03/07 09:42:11;;;;;;;27.85;13.95;;;;;;;4.49;45.26;100135.28;4318432;33;33757;-72
2022/03/07 09:44:39;;;;;;;23.85;13.77;;;;;;;4.86;43.19;100127.78;4320653;33;33879;-72
2022/03/07 09:47:07;;;;;;;22.27;13.50;;;;;;;3.99;44.83;100133.75;4318369;33;33356;-71
2022/03/07 09:49:34;;;;;;;23.75;13.75;;;;;;;4.70;43.59;100125.44;4312109;33;34111;-71
2022/03/07 09:52:02;;;;;;;24.75;14.02;;;;;;;4.87;44.83;100123.22;4331310;33;33802;-71
2022/03/07 09:54:30;;;;;;;24.90;13.43;;;;;;;4.85;44.03;100117.22;4304357;33;33943;-70
2022/03/07 09:56:58;;;;;;;25.08;13.70;;;;;;;5.08;43.60;100122.25;4318266;33;33537;-71
2022/03/07 09:59:25;;;;;;;24.27;13.27;;;;;;;4.41;44.99;100126.56;4318359;33;34056;-70
2022/03/07 10:02:12;;;;;;;24.70;14.07;;;;;;;3.54;46.60;100131.31;4319821;33;34243;-71
2022/03/07 10:04:42;;;;;;;22.83;12.77;;;;;;;3.98;46.18;100135.59;4332791;33;34757;-72
2022/03/07 10:07:10;;;;;;;24.77;14.27;;;;;;;3.77;46.63;100133.78;4319510;33;34572;-73
2022/03/07 10:09:37;;;;;;;26.33;14.90;;;;;;;3.64;46.58;100129.16;4333101;33;33960;-72
2022/03/07 10:12:06;;;;;;;26.40;14.35;;;;;;;3.91;45.96;100124.00;4313453;33;34084;-72
2022/03/07 10:14:41;;;;;;;25.77;14.55;;;;;;;4.08;45.73;100130.72;4319423;33;34019;-71
2022/03/07 10:17:20;;;;;;;2.15;1.35;;;;;;;4.27;45.64;100126.47;4305820;33;34516;-71
2022/03/07 10:19:48;;;;;;;28.25;13.80;;;;;;;3.73;47.32;100127.16;4331541;33;34893;-72
2022/03/07 10:22:23;;;;;;;24.67;14.70;;;;;;;3.25;47.90;100137.69;4332724;33;33877;-72
2022/03/07 10:25:08;;;;;;;27.10;14.82;;;;;;;3.48;47.64;100130.25;4332676;33;34740;-71
2022/03/07 10:27:41;;;;;;;27.52;14.77;;;;;;;4.06;46.03;100118.50;4315190;33;34247;-71
2022/03/07 10:30:11;;;;;;;0.77;0.77;;;;;;;4.05;45.97;100119.53;4322280;33;34550;-73
2022/03/07 10:32:39;;;;;;;27.42;15.73;;;;;;;4.01;45.40;100119.09;4329965;33;33967;-70
2022/03/07 10:35:07;;;;;;;25.58;14.95;;;;;;;3.58;47.24;100116.50;4311696;33;33821;-74
2022/03/07 10:37:37;;;;;;;27.23;15.77;;;;;;;3.22;47.47;100116.62;4305319;33;33330;-73
2022/03/07 10:40:18;;;;;;;31.52;17.58;;;;;;;3.13;47.82;100128.47;4304154;33;34468;-70
2022/03/07 10:42:47;;;;;;;30.48;17.83;;;;;;;3.86;46.43;100113.00;4317518;33;34849;-73
2022/03/07 10:45:15;;;;;;;28.77;16.08;;;;;;;3.89;46.88;100112.63;4317562;33;34770;-72
2022/03/07 10:47:43;;;;;;;29.98;16.70;;;;;;;3.72;46.83;100104.03;4317807;33;33563;-71
2022/03/07 10:50:10;;;;;;;28.42;16.35;;;;;;;4.37;45.12;100103.81;4318070;33;33887;-68
2022/03/07 10:52:40;;;;;;;28.33;16.23;;;;;;;3.83;45.67;100092.75;4317379;33;33940;-75
2022/03/07 10:55:10;;;;;;;26.85;16.02;;;;;;;4.24;45.23;100093.81;4330976;33;34910;-69
2022/03/07 10:57:40;;;;;;;29.50;17.08;;;;;;;4.32;44.67;100086.44;4332139;33;33722;-71
2022/03/07 11:00:13;;;;;;;1.83;1.15;;;;;;;4.47;43.47;100082.75;4332186;33;33646;-67
2022/03/07 11:02:44;;;;;;;30.10;17.95;;;;;;;4.63;44.15;100077.03;4331794;33;34208;-71
2022/03/07 11:05:14;;;;;;;35.28;19.05;;;;;;;4.24;43.77;100075.84;4326259;33;33823;-71
2022/03/07 11:07:43;;;;;;;32.03;17.35;;;;;;;4.24;45.10;100072.34;4333825;33;33512;-69
2022/03/07 11:10:13;;;;;;;29.60;17.20;;;;;;;4.46;44.08;100070.34;4334242;33;34002;-72
2022/03/07 11:12:40;;;;;;;31.60;17.98;;;;;;;4.01;45.36;100067.25;4330246;33;34747;-67
2022/03/07 11:15:10;;;;;;;32.85;19.27;;;;;;;3.80;45.89;100060.94;4319557;33;34012;-70
2022/03/07 11:17:39;;;;;;;32.40;18.90;;;;;;;4.12;45.55;100064.00;4319498;33;33658;-68
2022/03/07 11:20:09;;;;;;;28.95;16.83;;;;;;;4.40;45.15;100055.03;4319395;33;34772;-68
2022/03/07 11:22:36;;;;;;;36.83;18.65;;;;;;;4.24;44.83;100051.66;4321966;33;34343;-72
2022/03/07 11:25:06;;;;;;;31.17;16.50;;;;;;;3.61;46.14;100049.06;4334229;33;34012;-70